sensor_id;sensor_type;location;lat;lon;timestamp;P1;durP1;ratioP1;P2;durP2;ratioP2
16033;SDS011;8121;51.418;6.998;2022-11-20T00:08:47;15.60;;;8.37;;
16033;SDS011;8121;51.418;6.998;2022-11-20T00:18:50;11.50;;;7.10;;
16033;SDS011;8121;51.418;6.998;2022-11-20T00:28:53;12.93;;;7.23;;
16033;SDS011;8121;51.418;6.998;2022-11-20T00:38:57;7.50;;;5.90;;
16033;SDS011;8121;51.418;6.998;2022-11-20T00:48:58;13.93;;;6.90;;
16033;SDS011;8121;51.418;6.998;2022-11-20T00:59:01;14.73;;;7.70;;
16033;SDS011;8121;51.418;6.998;2022-11-20T01:09:04;9.07;;;5.83;;
16033;SDS011;8121;51.418;6.998;2022-11-20T01:19:10;9.70;;;6.40;;
16033;SDS011;8121;51.418;6.998;2022-11-20T01:29:14;8.17;;;5.80;;
16033;SDS011;8121;51.418;6.998;2022-11-20T01:39:18;8.80;;;6.13;;
16033;SDS011;8121;51.418;6.998;2022-11-20T01:49:21;6.50;;;4.53;;
16033;SDS011;8121;51.418;6.998;2022-11-20T01:59:26;8.53;;;5.83;;
16033;SDS011;8121;51.418;6.998;2022-11-20T02:09:29;6.57;;;4.80;;
16033;SDS011;8121;51.418;6.998;2022-11-20T02:19:32;7.70;;;5.80;;
16033;SDS011;8121;51.418;6.998;2022-11-20T02:29:43;4.90;;;4.40;;
16033;SDS011;8121;51.418;6.998;2022-11-20T02:39:47;5.70;;;3.97;;
16033;SDS011;8121;51.418;6.998;2022-11-20T02:49:51;7.70;;;4.73;;
16033;SDS011;8121;51.418;6.998;2022-11-20T02:59:52;7.07;;;3.47;;
16033;SDS011;8121;51.418;6.998;2022-11-20T03:09:55;5.53;;;4.33;;
16033;SDS011;8121;51.418;6.998;2022-11-20T03:19:57;10.67;;;6.07;;
16033;SDS011;8121;51.418;6.998;2022-11-20T03:30:00;6.97;;;4.90;;
16033;SDS011;8121;51.418;6.998;2022-11-20T03:40:02;5.83;;;4.47;;
16033;SDS011;8121;51.418;6.998;2022-11-20T03:50:06;5.13;;;4.37;;
16033;SDS011;8121;51.418;6.998;2022-11-20T04:00:08;9.30;;;6.10;;
16033;SDS011;8121;51.418;6.998;2022-11-20T04:10:12;7.33;;;5.27;;
16033;SDS011;8121;51.418;6.998;2022-11-20T04:20:13;13.60;;;6.63;;
16033;SDS011;8121;51.418;6.998;2022-11-20T04:30:16;7.17;;;4.50;;
16033;SDS011;8121;51.418;6.998;2022-11-20T04:40:18;5.47;;;3.80;;
16033;SDS011;8121;51.418;6.998;2022-11-20T04:50:20;8.67;;;5.37;;
16033;SDS011;8121;51.418;6.998;2022-11-20T05:00:22;10.63;;;7.20;;
16033;SDS011;8121;51.418;6.998;2022-11-20T05:10:25;13.03;;;8.10;;
16033;SDS011;8121;51.418;6.998;2022-11-20T05:20:26;10.00;;;6.00;;
16033;SDS011;8121;51.418;6.998;2022-11-20T05:30:29;8.30;;;5.70;;
16033;SDS011;8121;51.418;6.998;2022-11-20T05:40:31;5.67;;;4.50;;
16033;SDS011;8121;51.418;6.998;2022-11-20T05:50:33;6.40;;;4.10;;
16033;SDS011;8121;51.418;6.998;2022-11-20T06:00:35;8.70;;;5.60;;
16033;SDS011;8121;51.418;6.998;2022-11-20T06:10:38;7.03;;;4.70;;
16033;SDS011;8121;51.418;6.998;2022-11-20T06:20:40;8.43;;;5.87;;
16033;SDS011;8121;51.418;6.998;2022-11-20T06:30:46;10.80;;;5.27;;
16033;SDS011;8121;51.418;6.998;2022-11-20T06:40:47;10.20;;;6.60;;
16033;SDS011;8121;51.418;6.998;2022-11-20T06:50:50;8.70;;;5.20;;
16033;SDS011;8121;51.418;6.998;2022-11-20T07:00:52;10.80;;;6.63;;
16033;SDS011;8121;51.418;6.998;2022-11-20T07:10:57;7.10;;;6.07;;
16033;SDS011;8121;51.418;6.998;2022-11-20T07:21:00;10.17;;;5.73;;
16033;SDS011;8121;51.418;6.998;2022-11-20T07:31:03;8.93;;;6.53;;
16033;SDS011;8121;51.418;6.998;2022-11-20T07:41:06;16.00;;;7.93;;
16033;SDS011;8121;51.418;6.998;2022-11-20T07:51:09;15.33;;;9.00;;
16033;SDS011;8121;51.418;6.998;2022-11-20T08:01:11;17.43;;;9.20;;
16033;SDS011;8121;51.418;6.998;2022-11-20T08:11:14;12.27;;;6.77;;
16033;SDS011;8121;51.418;6.998;2022-11-20T08:21:33;10.37;;;6.47;;
16033;SDS011;8121;51.418;6.998;2022-11-20T08:31:36;13.13;;;5.67;;
16033;SDS011;8121;51.418;6.998;2022-11-20T08:41:38;16.10;;;7.37;;
16033;SDS011;8121;51.418;6.998;2022-11-20T08:51:41;15.40;;;9.33;;
16033;SDS011;8121;51.418;6.998;2022-11-20T09:01:43;11.93;;;6.10;;
16033;SDS011;8121;51.418;6.998;2022-11-20T09:11:46;12.67;;;7.97;;
16033;SDS011;8121;51.418;6.998;2022-11-20T09:21:49;5.43;;;4.87;;
16033;SDS011;8121;51.418;6.998;2022-11-20T09:31:52;7.30;;;4.87;;
16033;SDS011;8121;51.418;6.998;2022-11-20T09:41:56;5.47;;;4.20;;
16033;SDS011;8121;51.418;6.998;2022-11-20T09:52:09;5.90;;;4.60;;
16033;SDS011;8121;51.418;6.998;2022-11-20T10:02:16;6.23;;;4.73;;
16033;SDS011;8121;51.418;6.998;2022-11-20T10:12:27;10.93;;;5.77;;
16033;SDS011;8121;51.418;6.998;2022-11-20T10:22:35;7.30;;;5.20;;
16033;SDS011;8121;51.418;6.998;2022-11-20T10:32:46;9.20;;;5.13;;
16033;SDS011;8121;51.418;6.998;2022-11-20T10:42:49;6.40;;;4.73;;
16033;SDS011;8121;51.418;6.998;2022-11-20T10:52:59;5.73;;;4.60;;
16033;SDS011;8121;51.418;6.998;2022-11-20T11:03:07;8.93;;;5.53;;
16033;SDS011;8121;51.418;6.998;2022-11-20T11:13:23;4.17;;;3.63;;
16033;SDS011;8121;51.418;6.998;2022-11-20T11:23:30;5.67;;;4.23;;
16033;SDS011;8121;51.418;6.998;2022-11-20T11:33:34;6.70;;;4.50;;
16033;SDS011;8121;51.418;6.998;2022-11-20T11:43:36;9.63;;;6.60;;
16033;SDS011;8121;51.418;6.998;2022-11-20T11:53:58;9.40;;;6.33;;
16033;SDS011;8121;51.418;6.998;2022-11-20T12:04:02;6.83;;;4.77;;
16033;SDS011;8121;51.418;6.998;2022-11-20T12:14:11;9.80;;;5.80;;
16033;SDS011;8121;51.418;6.998;2022-11-20T12:24:32;15.00;;;6.90;;
16033;SDS011;8121;51.418;6.998;2022-11-20T12:55:30;9.67;;;5.70;;
16033;SDS011;8121;51.418;6.998;2022-11-20T13:05:46;8.03;;;5.73;;
16033;SDS011;8121;51.418;6.998;2022-11-20T13:15:55;6.57;;;4.83;;
16033;SDS011;8121;51.418;6.998;2022-11-20T13:26:03;11.10;;;6.10;;
16033;SDS011;8121;51.418;6.998;2022-11-20T13:36:20;16.77;;;8.87;;
16033;SDS011;8121;51.418;6.998;2022-11-20T13:46:22;11.60;;;6.73;;
16033;SDS011;8121;51.418;6.998;2022-11-20T13:56:28;10.77;;;6.10;;
16033;SDS011;8121;51.418;6.998;2022-11-20T14:06:39;18.60;;;9.00;;
16033;SDS011;8121;51.418;6.998;2022-11-20T14:16:44;11.93;;;6.50;;
16033;SDS011;8121;51.418;6.998;2022-11-20T14:26:46;10.90;;;6.50;;
16033;SDS011;8121;51.418;6.998;2022-11-20T14:36:50;12.73;;;7.07;;
16033;SDS011;8121;51.418;6.998;2022-11-20T14:46:54;15.57;;;8.57;;
16033;SDS011;8121;51.418;6.998;2022-11-20T14:56:58;10.63;;;7.27;;
16033;SDS011;8121;51.418;6.998;2022-11-20T15:07:01;8.53;;;5.93;;
16033;SDS011;8121;51.418;6.998;2022-11-20T15:17:04;8.70;;;5.57;;
16033;SDS011;8121;51.418;6.998;2022-11-20T15:27:07;15.63;;;8.07;;
16033;SDS011;8121;51.418;6.998;2022-11-20T15:37:10;16.17;;;8.80;;
16033;SDS011;8121;51.418;6.998;2022-11-20T15:47:11;11.70;;;6.83;;
16033;SDS011;8121;51.418;6.998;2022-11-20T15:57:14;10.70;;;7.57;;
16033;SDS011;8121;51.418;6.998;2022-11-20T16:07:16;15.10;;;8.90;;
16033;SDS011;8121;51.418;6.998;2022-11-20T16:17:19;21.17;;;11.63;;
16033;SDS011;8121;51.418;6.998;2022-11-20T16:27:41;14.20;;;8.07;;
16033;SDS011;8121;51.418;6.998;2022-11-20T16:37:44;25.40;;;9.10;;
16033;SDS011;8121;51.418;6.998;2022-11-20T16:47:45;17.00;;;8.10;;
16033;SDS011;8121;51.418;6.998;2022-11-20T16:57:48;14.40;;;7.60;;
16033;SDS011;8121;51.418;6.998;2022-11-20T17:07:50;9.23;;;4.80;;
16033;SDS011;8121;51.418;6.998;2022-11-20T17:17:53;15.20;;;8.37;;
16033;SDS011;8121;51.418;6.998;2022-11-20T17:27:54;14.60;;;6.13;;
16033;SDS011;8121;51.418;6.998;2022-11-20T17:37:57;7.40;;;4.97;;
16033;SDS011;8121;51.418;6.998;2022-11-20T17:47:59;10.13;;;5.60;;
16033;SDS011;8121;51.418;6.998;2022-11-20T17:58:02;15.03;;;6.83;;
16033;SDS011;8121;51.418;6.998;2022-11-20T18:08:05;6.53;;;4.27;;
16033;SDS011;8121;51.418;6.998;2022-11-20T18:18:08;5.17;;;3.73;;
16033;SDS011;8121;51.418;6.998;2022-11-20T18:28:10;2.90;;;2.50;;
16033;SDS011;8121;51.418;6.998;2022-11-20T18:38:13;2.80;;;2.20;;
16033;SDS011;8121;51.418;6.998;2022-11-20T18:48:15;3.10;;;2.60;;
16033;SDS011;8121;51.418;6.998;2022-11-20T18:58:18;2.63;;;2.40;;
16033;SDS011;8121;51.418;6.998;2022-11-20T19:08:20;2.27;;;1.97;;
16033;SDS011;8121;51.418;6.998;2022-11-20T19:18:23;1.60;;;1.50;;
16033;SDS011;8121;51.418;6.998;2022-11-20T19:28:24;1.40;;;1.30;;
16033;SDS011;8121;51.418;6.998;2022-11-20T19:38:29;1.57;;;1.47;;
16033;SDS011;8121;51.418;6.998;2022-11-20T19:48:38;3.00;;;2.37;;
16033;SDS011;8121;51.418;6.998;2022-11-20T19:58:44;3.50;;;3.00;;
16033;SDS011;8121;51.418;6.998;2022-11-20T20:08:54;4.13;;;3.30;;
16033;SDS011;8121;51.418;6.998;2022-11-20T20:18:59;5.63;;;4.40;;
16033;SDS011;8121;51.418;6.998;2022-11-20T20:29:01;5.87;;;5.30;;
16033;SDS011;8121;51.418;6.998;2022-11-20T20:39:05;6.40;;;5.53;;
16033;SDS011;8121;51.418;6.998;2022-11-20T20:49:06;9.13;;;5.83;;
16033;SDS011;8121;51.418;6.998;2022-11-20T20:59:10;9.80;;;6.37;;
16033;SDS011;8121;51.418;6.998;2022-11-20T21:09:11;8.03;;;5.60;;
16033;SDS011;8121;51.418;6.998;2022-11-20T21:19:14;12.77;;;7.93;;
16033;SDS011;8121;51.418;6.998;2022-11-20T21:29:15;8.30;;;6.37;;
16033;SDS011;8121;51.418;6.998;2022-11-20T21:39:18;14.30;;;8.17;;
16033;SDS011;8121;51.418;6.998;2022-11-20T21:49:21;16.20;;;8.70;;
16033;SDS011;8121;51.418;6.998;2022-11-20T21:59:25;15.97;;;8.00;;
16033;SDS011;8121;51.418;6.998;2022-11-20T22:09:26;13.70;;;8.17;;
16033;SDS011;8121;51.418;6.998;2022-11-20T22:19:29;15.63;;;7.53;;
16033;SDS011;8121;51.418;6.998;2022-11-20T22:29:30;21.27;;;10.60;;
16033;SDS011;8121;51.418;6.998;2022-11-20T22:39:33;24.57;;;12.23;;
16033;SDS011;8121;51.418;6.998;2022-11-20T22:49:34;21.17;;;10.70;;
16033;SDS011;8121;51.418;6.998;2022-11-20T22:59:37;36.67;;;15.40;;
16033;SDS011;8121;51.418;6.998;2022-11-20T23:09:40;38.67;;;14.87;;
16033;SDS011;8121;51.418;6.998;2022-11-20T23:19:43;23.87;;;11.60;;
16033;SDS011;8121;51.418;6.998;2022-11-20T23:29:44;17.90;;;10.13;;
16033;SDS011;8121;51.418;6.998;2022-11-20T23:39:47;16.47;;;9.10;;
16033;SDS011;8121;51.418;6.998;2022-11-20T23:49:48;16.70;;;8.57;;
16033;SDS011;8121;51.418;6.998;2022-11-20T23:59:51;15.40;;;9.07;;
